Coastal Venture — WDF3647 — position and weather

sailwx.info

Track history (hours):
 
Tides and Currents Weather Stations Pressure Air Temp Water Temp Dewpoint Dewpoint Depression Visibility Wind Speed Wind Dir Waves Ship Positions

Coastal Venture

Owner: Stevens Transportation, LLC, Yonges Island, SC. More information available from US FCC via Universal Licensing System and Coast Guard Vessel Documentation Center.

Last reported at 2017-Dec-17 17:01 UTC. Time now 2017-Dec-18 22:45 UTC.
Position N 41°36' E 141°34'.

Length 75 m; draft 2.9 m.

Type: Cargo ship. MMSI: 302232424.

Date/timePositionNaut miles runAvg speedWind from/ knotsBaromVisibWave heightAir tempDewpointWater temp
2017-Dec-17 17:01N 41°36' E 141°34'015.1
2017-Dec-17 17:00N 41°36' E 141°33'714.5
2017-Dec-17 16:30N 41°37' E 141°24'714.6
2017-Dec-17 16:00N 41°37' E 141°14'816.5
2017-Dec-17 15:31N 41°39' E 141°03'816.9
2017-Dec-17 15:01N 41°37' E 140°52'815.6
2017-Dec-17 14:30N 41°33' E 140°43'815.1
2017-Dec-17 14:01N 41°28' E 140°35'814.6
2017-Dec-17 13:29N 41°23' E 140°28'  
2017-Dec-10 08:29N 25°13' E 123°00'612.5
2017-Dec-10 08:00N 25°07' E 122°57'612.9
2017-Dec-10 07:30N 25°02' E 122°53'612.7
2017-Dec-10 07:00N 24°57' E 122°50'612.5
2017-Dec-10 06:30N 24°51' E 122°46'612.5
2017-Dec-10 06:00N 24°46' E 122°43'612.5
2017-Dec-10 05:30N 24°40' E 122°39'612.2
2017-Dec-10 05:00N 24°35' E 122°36'612.2
2017-Dec-10 04:30N 24°30' E 122°33'612.4
2017-Dec-10 04:00N 24°24' E 122°31'612.6
2017-Dec-10 03:30N 24°18' E 122°29'612.5
2017-Dec-10 03:00N 24°12' E 122°27'612.0
2017-Dec-10 02:30N 24°06' E 122°26'612.1
2017-Dec-10 02:00N 23°60' E 122°24'  
Track history (hours):
 
Tides and Currents Weather Stations Pressure Air Temp Water Temp Dewpoint Dewpoint Depression Visibility Wind Speed Wind Dir Waves Ship Positions

Coastal Venture

Owner: Stevens Transportation, LLC, Yonges Island, SC. More information available from US FCC via Universal Licensing System and Coast Guard Vessel Documentation Center.

Last reported at 2017-Dec-17 17:01 UTC. Time now 2017-Dec-18 22:45 UTC.
Position N 41°36' E 141°34'.

Length 75 m; draft 2.9 m.

Type: Cargo ship. MMSI: 302232424.

Date/timePositionNaut miles runAvg speedWind from/ knotsBaromVisibWave heightAir tempDewpointWater temp
2017-Dec-17 17:01N 41°36' E 141°34'015.1
2017-Dec-17 17:00N 41°36' E 141°33'714.5
2017-Dec-17 16:30N 41°37' E 141°24'714.6
2017-Dec-17 16:00N 41°37' E 141°14'816.5
2017-Dec-17 15:31N 41°39' E 141°03'816.9
2017-Dec-17 15:01N 41°37' E 140°52'815.6
2017-Dec-17 14:30N 41°33' E 140°43'815.1
2017-Dec-17 14:01N 41°28' E 140°35'814.6
2017-Dec-17 13:29N 41°23' E 140°28'  
2017-Dec-10 08:29N 25°13' E 123°00'612.5
2017-Dec-10 08:00N 25°07' E 122°57'612.9
2017-Dec-10 07:30N 25°02' E 122°53'612.7
2017-Dec-10 07:00N 24°57' E 122°50'612.5
2017-Dec-10 06:30N 24°51' E 122°46'612.5
2017-Dec-10 06:00N 24°46' E 122°43'612.5
2017-Dec-10 05:30N 24°40' E 122°39'612.2
2017-Dec-10 05:00N 24°35' E 122°36'612.2
2017-Dec-10 04:30N 24°30' E 122°33'612.4
2017-Dec-10 04:00N 24°24' E 122°31'612.6
2017-Dec-10 03:30N 24°18' E 122°29'612.5
2017-Dec-10 03:00N 24°12' E 122°27'612.0
2017-Dec-10 02:30N 24°06' E 122°26'612.1
2017-Dec-10 02:00N 23°60' E 122°24'  

Dump ship's entire track history